Time;durP1;ratioP1;P1;durP2;ratioP2;P2;SDS_P1;SDS_P2;PMS_P1;PMS_P2;Temp;Humidity;BMP_temperature;BMP_pressure;BME280_temperature;BME280_humidity;BME280_pressure;Samples;Min_cycle;Max_cycle;Signal;HPM_P1;HPM_P2
2021/12/28 00:00:16;;;;;;;48.67;20.20;;;103.30;2227.20;;;;;;5063604;28;20078;-84
2021/12/28 00:02:47;;;;;;;50.45;19.83;;;103.20;2227.20;;;;;;5080753;28;20479;-76
2021/12/28 00:05:14;;;;;;;45.83;19.50;;;103.10;2227.20;;;;;;5076979;28;20474;-80
2021/12/28 00:07:41;;;;;;;48.72;21.23;;;103.20;2227.20;;;;;;5082512;28;20028;-75
2021/12/28 00:10:10;;;;;;;37.65;17.92;;;103.30;2227.20;;;;;;5092853;28;20028;-74
2021/12/28 00:12:38;;;;;;;41.90;17.92;;;103.00;2227.20;;;;;;5091025;28;20590;-76
2021/12/28 00:15:18;;;;;;;41.03;17.95;;;103.00;2227.20;;;;;;5074692;28;20024;-83
2021/12/28 00:17:59;;;;;;;42.45;18.08;;;102.80;2227.20;;;;;;5080911;28;20012;-81
2021/12/28 00:20:26;;;;;;;48.33;24.17;;;102.70;2227.20;;;;;;5072875;28;20027;-75
2021/12/28 00:22:52;;;;;;;57.33;22.60;;;102.70;2227.20;;;;;;5092466;28;20028;-82
2021/12/28 00:25:17;;;;;;;;;;;102.70;2227.20;;;;;;5073474;28;20032;-76
2021/12/28 00:27:43;;;;;;;53.28;21.88;;;102.60;2227.20;;;;;;5091035;28;19923;-76
2021/12/28 00:30:09;;;;;;;;;;;102.70;2227.20;;;;;;5092111;28;20035;-83
2021/12/28 00:32:35;;;;;;;50.30;20.17;;;102.80;2227.20;;;;;;5092051;28;19915;-85
2021/12/28 00:35:01;;;;;;;;;;;103.00;2227.20;;;;;;5074238;28;20035;-74
2021/12/28 00:37:26;;;;;;;56.72;22.90;;;102.70;2227.20;;;;;;5099940;28;19889;-75
2021/12/28 00:39:52;;;;;;;;;;;102.50;2227.20;;;;;;5081862;28;20422;-75
2021/12/28 00:42:18;;;;;;;58.13;21.92;;;102.70;2227.20;;;;;;5074571;28;20374;-84
2021/12/28 00:44:43;;;;;;;;;;;102.80;2227.20;;;;;;5092438;28;20016;-75
2021/12/28 00:47:09;;;;;;;56.17;22.83;;;102.90;2227.20;;;;;;5092705;28;19903;-75
2021/12/28 00:49:35;;;;;;;;;;;103.00;2227.20;;;;;;5092473;28;20052;-75
2021/12/28 00:52:00;;;;;;;65.03;25.25;;;102.80;2227.20;;;;;;5092188;28;20283;-75
2021/12/28 00:54:26;;;;;;;;;;;102.70;2227.20;;;;;;5092857;28;20058;-75
2021/12/28 00:56:52;;;;;;;55.97;23.50;;;102.80;2227.20;;;;;;5092344;28;19919;-77
2021/12/28 00:59:17;;;;;;;;;;;102.80;2227.20;;;;;;5092327;28;20487;-78
2021/12/28 01:01:43;;;;;;;59.95;24.95;;;102.80;2227.20;;;;;;5092320;28;19911;-83
2021/12/28 01:04:09;;;;;;;;;;;102.80;2227.20;;;;;;5092935;28;20012;-84
2021/12/28 01:06:35;;;;;;;65.32;22.75;;;102.70;2227.20;;;;;;5092202;28;19904;-76
2021/12/28 01:09:00;;;;;;;;;;;102.70;2227.20;;;;;;5092437;28;20065;-75
2021/12/28 01:11:26;;;;;;;69.68;23.80;;;102.60;2227.20;;;;;;5074432;28;19912;-76
2021/12/28 01:13:52;;;;;;;;;;;102.60;2227.20;;;;;;5092612;28;20468;-82
2021/12/28 01:16:18;;;;;;;53.55;23.42;;;102.60;2227.20;;;;;;5091988;28;19904;-75
2021/12/28 01:18:44;;;;;;;56.20;24.67;;;102.60;2227.20;;;;;;5071513;28;20020;-75
2021/12/28 01:21:10;;;;;;;;;;;102.40;2227.20;;;;;;5092608;28;20027;-75
2021/12/28 01:23:36;;;;;;;41.65;17.33;;;77.60;2227.20;;;;;;5074364;28;20003;-75
2021/12/28 01:26:02;;;;;;;;;;;77.50;2227.20;;;;;;5091099;28;20032;-84
2021/12/28 01:28:28;;;;;;;24.02;10.95;;;77.50;2227.20;;;;;;5067157;28;19920;-83
2021/12/28 01:30:53;;;;;;;;;;;77.70;2227.20;;;;;;5074576;28;20043;-76
2021/12/28 01:33:19;;;;;;;25.92;11.02;;;77.70;2227.20;;;;;;5074246;28;19912;-78
2021/12/28 01:35:45;;;;;;;;;;;77.60;2227.20;;;;;;5080602;28;20021;-75
2021/12/28 01:38:11;;;;;;;30.52;13.00;;;77.60;2227.20;;;;;;5072224;28;20054;-81
2021/12/28 01:40:40;;;;;;;;;;;77.50;2227.20;;;;;;5073226;28;20157;-75
2021/12/28 01:43:11;;;;;;;34.80;14.90;;;77.30;2227.20;;;;;;5089194;28;20022;-75
2021/12/28 01:45:51;;;;;;;37.20;15.68;;;77.50;2227.20;;;;;;5091994;28;20054;-75
2021/12/28 01:48:29;;;;;;;53.90;21.98;;;77.70;2227.20;;;;;;5072978;28;20095;-83
2021/12/28 01:51:01;;;;;;;44.88;20.42;;;77.70;2227.20;;;;;;5090356;28;20463;-75
2021/12/28 01:53:28;;;;;;;43.83;17.85;;;77.40;2227.20;;;;;;5075356;28;20020;-75
2021/12/28 01:55:56;;;;;;;42.05;18.92;;;77.30;2227.20;;;;;;5077832;28;20406;-75
2021/12/28 01:58:23;;;;;;;44.03;19.60;;;77.40;2227.20;;;;;;5077661;28;20035;-81
2021/12/28 02:00:51;;;;;;;52.85;20.33;;;77.60;2227.20;;;;;;5095478;28;20027;-75
2021/12/28 02:03:19;;;;;;;53.33;21.85;;;77.70;2227.20;;;;;;5095841;28;20103;-84
2021/12/28 02:05:45;;;;;;;49.72;20.80;;;77.70;2227.20;;;;;;5076117;28;20036;-75
2021/12/28 02:08:15;;;;;;;44.30;18.10;;;77.50;2227.20;;;;;;5095848;28;20047;-75
2021/12/28 02:10:45;;;;;;;48.08;19.60;;;77.50;2227.20;;;;;;5077443;28;20064;-76
2021/12/28 02:13:10;;;;;;;59.30;22.98;;;77.40;2227.20;;;;;;5077385;28;20024;-84
2021/12/28 02:15:37;;;;;;;;;;;77.40;2227.20;;;;;;5077753;28;20027;-84
2021/12/28 02:18:05;;;;;;;33.83;13.47;;;77.50;2227.20;;;;;;5095066;28;20602;-76
2021/12/28 02:20:32;;;;;;;32.10;14.35;;;77.50;2227.20;;;;;;5095330;28;20036;-84
2021/12/28 02:22:58;;;;;;;38.50;15.05;;;77.50;2227.20;;;;;;5095418;28;20052;-84
2021/12/28 02:25:23;;;;;;;;;;;77.60;2227.20;;;;;;5077110;28;20510;-75
2021/12/28 02:27:49;;;;;;;40.08;15.05;;;77.60;2227.20;;;;;;5087973;28;20279;-76
2021/12/28 02:30:18;;;;;;;36.70;15.23;;;77.30;2227.20;;;;;;5069734;28;20084;-77
2021/12/28 02:32:46;;;;;;;34.85;15.77;;;77.20;2227.20;;;;;;5095637;28;20024;-76
2021/12/28 02:35:22;;;;;;;34.85;16.48;;;77.20;2227.20;;;;;;5095325;28;20012;-78
2021/12/28 02:37:49;;;;;;;25.33;11.85;;;77.50;2227.20;;;;;;5095404;28;20352;-75
2021/12/28 02:40:17;;;;;;;34.83;16.52;;;77.50;2227.20;;;;;;5095014;28;20020;-85
2021/12/28 02:42:43;;;;;;;36.40;15.23;;;77.50;2227.20;;;;;;5094896;28;20533;-84
2021/12/28 02:45:12;;;;;;;;;;;77.50;2227.20;;;;;;5095025;28;20033;-86
2021/12/28 02:47:40;;;;;;;34.72;14.88;;;77.50;2227.20;;;;;;5094716;28;19911;-75
2021/12/28 02:50:09;;;;;;;35.42;14.65;;;77.40;2227.20;;;;;;5094849;28;20023;-85
2021/12/28 02:52:37;;;;;;;38.42;14.35;;;77.40;2227.20;;;;;;5076877;28;20024;-76
2021/12/28 02:55:09;;;;;;;34.75;15.55;;;77.20;2227.20;;;;;;5094765;28;20715;-77
2021/12/28 02:57:35;;;;;;;34.45;15.23;;;77.00;2227.20;;;;;;5092515;28;20026;-75
2021/12/28 03:00:01;;;;;;;;;;;77.00;2227.20;;;;;;5095167;28;20024;-78
2021/12/28 03:02:27;;;;;;;33.72;15.10;;;77.40;2227.20;;;;;;5094020;28;20368;-75
2021/12/28 03:04:53;;;;;;;31.15;14.57;;;77.60;2227.20;;;;;;5075793;28;20506;-75
2021/12/28 03:07:19;;;;;;;;;;;77.70;2227.20;;;;;;5095170;28;20016;-75
2021/12/28 03:09:44;;;;;;;31.08;13.52;;;77.70;2227.20;;;;;;5085965;28;19904;-77
2021/12/28 03:12:10;;;;;;;;;;;77.60;2227.20;;;;;;5082727;28;20480;-75
2021/12/28 03:14:36;;;;;;;38.95;17.40;;;77.70;2227.20;;;;;;5071533;28;19904;-85
2021/12/28 03:17:05;;;;;;;42.58;17.58;;;77.50;2227.20;;;;;;5094384;28;20367;-76
2021/12/28 03:19:30;;;;;;;45.17;17.88;;;77.60;2227.20;;;;;;5091692;28;20072;-75
2021/12/28 03:21:57;;;;;;;;;;;77.60;2227.20;;;;;;5094592;28;20107;-76
2021/12/28 03:24:23;;;;;;;45.95;19.17;;;77.50;2227.20;;;;;;5076084;28;19907;-78
2021/12/28 03:26:48;;;;;;;;;;;77.60;2227.20;;;;;;5094232;28;20079;-85
2021/12/28 03:29:14;;;;;;;41.65;19.52;;;102.40;2227.20;;;;;;5075728;28;20006;-75
2021/12/28 03:31:40;;;;;;;;;;;102.60;2227.20;;;;;;5076303;28;20383;-75
2021/12/28 03:34:05;;;;;;;50.65;18.88;;;102.50;2227.20;;;;;;5093937;28;19908;-84
2021/12/28 03:36:31;;;;;;;;;;;102.50;2227.20;;;;;;5094262;28;20020;-85
2021/12/28 03:38:58;;;;;;;43.97;18.17;;;77.70;2227.20;;;;;;5094358;28;19903;-81
2021/12/28 03:41:28;;;;;;;44.00;18.45;;;77.70;2227.20;;;;;;5094153;28;20056;-75
2021/12/28 03:43:55;;;;;;;41.45;18.42;;;77.70;2227.20;;;;;;5080825;28;20028;-75
2021/12/28 03:46:23;;;;;;;46.40;21.02;;;102.60;2227.20;;;;;;5094469;28;20055;-85
2021/12/28 03:48:49;;;;;;;47.13;19.30;;;102.70;2227.20;;;;;;5098512;28;20020;-75
2021/12/28 03:51:14;;;;;;;;;;;102.80;2227.20;;;;;;5105550;28;20510;-75
2021/12/28 03:53:40;;;;;;;53.60;21.02;;;102.70;2227.20;;;;;;5099949;28;19974;-75
2021/12/28 03:56:07;;;;;;;;;;;102.80;2227.20;;;;;;5093517;28;20592;-79
2021/12/28 03:58:34;;;;;;;34.28;15.48;;;102.90;2227.20;;;;;;5093339;28;19908;-85
2021/12/28 04:01:03;;;;;;;44.35;20.48;;;103.10;2227.20;;;;;;5075195;28;20505;-84
2021/12/28 04:03:29;;;;;;;51.03;20.70;;;103.10;2227.20;;;;;;5075418;28;20746;-85
2021/12/28 04:05:55;;;;;;;;;;;103.00;2227.20;;;;;;5093819;28;20091;-79
2021/12/28 04:08:22;;;;;;;40.95;18.83;;;102.90;2227.20;;;;;;5093254;28;19911;-85
2021/12/28 04:11:01;;;;;;;41.42;19.33;;;102.70;2227.20;;;;;;5093408;28;20020;-75
2021/12/28 04:13:26;;;;;;;35.15;16.00;;;102.50;2227.20;;;;;;5093158;28;20036;-85
2021/12/28 04:15:52;;;;;;;;;;;102.50;2227.20;;;;;;5074908;28;20108;-85
2021/12/28 04:18:19;;;;;;;40.15;18.40;;;102.60;2227.20;;;;;;5093320;28;20343;-75
2021/12/28 04:20:45;;;;;;;39.65;18.35;;;102.80;2227.20;;;;;;5087523;28;20021;-75
2021/12/28 04:23:10;;;;;;;;;;;103.00;2227.20;;;;;;5087898;28;20020;-75
2021/12/28 04:25:36;;;;;;;40.00;17.10;;;102.90;2227.20;;;;;;5092770;28;20284;-84
2021/12/28 04:28:02;;;;;;;;;;;102.80;2227.20;;;;;;5085440;28;20040;-84
2021/12/28 04:30:28;;;;;;;44.30;20.13;;;103.00;2227.20;;;;;;5089038;28;19920;-84
2021/12/28 04:32:53;;;;;;;;;;;103.00;2227.20;;;;;;5093479;28;20023;-75
2021/12/28 04:35:19;;;;;;;45.03;21.15;;;103.20;2227.20;;;;;;5092796;28;19949;-75
2021/12/28 04:37:45;;;;;;;;;;;103.20;2227.20;;;;;;5075406;28;20082;-85
2021/12/28 04:40:12;;;;;;;46.83;21.45;;;103.30;2227.20;;;;;;5092662;28;19903;-85
2021/12/28 04:42:41;;;;;;;46.53;20.00;;;103.30;2227.20;;;;;;5092532;28;20028;-85
2021/12/28 04:45:09;;;;;;;53.63;21.80;;;103.00;2227.20;;;;;;5092623;28;20012;-86
2021/12/28 04:47:37;;;;;;;49.05;20.60;;;128.30;2252.80;;;;;;5087247;28;20048;-75
2021/12/28 04:50:07;;;;;;;44.22;20.10;;;128.10;2252.80;;;;;;5092371;28;20073;-76
2021/12/28 04:52:36;;;;;;;41.05;19.20;;;128.20;2252.80;;;;;;5073942;28;20032;-76
2021/12/28 04:55:09;;;;;;;46.85;21.60;;;128.20;2252.80;;;;;;5074509;28;20051;-79
2021/12/28 04:57:35;;;;;;;49.15;21.63;;;128.20;2252.80;;;;;;5090020;28;20073;-76
2021/12/28 05:00:01;;;;;;;;;;;128.30;2252.80;;;;;;5092473;28;20479;-85
2021/12/28 05:02:27;;;;;;;44.83;20.20;;;128.30;2252.80;;;;;;5074407;28;20364;-76
2021/12/28 05:04:52;;;;;;;;;;;128.20;2252.80;;;;;;5092769;28;20025;-81
2021/12/28 05:07:18;;;;;;;61.55;21.75;;;128.20;2252.80;;;;;;5092798;28;20260;-82
2021/12/28 05:09:43;;;;;;;;;;;128.10;2252.80;;;;;;5074594;28;20078;-84
2021/12/28 05:12:10;;;;;;;54.30;21.83;;;128.10;2252.80;;;;;;5092530;28;20372;-84
2021/12/28 05:14:39;;;;;;;56.88;23.25;;;128.20;2252.80;;;;;;5079853;28;20024;-75
2021/12/28 05:17:05;;;;;;;55.97;21.42;;;103.30;2227.20;;;;;;5076939;28;20027;-75
2021/12/28 05:19:31;;;;;;;;;;;128.20;2252.80;;;;;;5074496;28;20016;-86
2021/12/28 05:21:57;;;;;;;48.97;21.65;;;128.30;2252.80;;;;;;5074049;28;20304;-75
2021/12/28 05:24:22;;;;;;;;;;;128.00;2252.80;;;;;;5074866;28;20028;-83
2021/12/28 05:26:49;;;;;;;53.45;19.75;;;103.30;2227.20;;;;;;5075443;28;20010;-76
2021/12/28 05:29:15;;;;;;;63.15;22.35;;;103.20;2227.20;;;;;;5096489;28;20479;-76
2021/12/28 05:31:41;;;;;;;;;;;103.20;2227.20;;;;;;5078219;28;20032;-75
2021/12/28 05:34:08;;;;;;;43.58;17.95;;;103.00;2227.20;;;;;;5096230;28;19938;-75
2021/12/28 05:36:35;;;;;;;45.08;19.13;;;103.20;2227.20;;;;;;5095974;28;20104;-76
2021/12/28 05:39:01;;;;;;;48.70;19.95;;;103.20;2227.20;;;;;;5096078;28;20027;-85
2021/12/28 05:41:27;;;;;;;51.67;19.77;;;103.30;2227.20;;;;;;5087511;28;20040;-75
2021/12/28 05:43:53;;;;;;;45.95;19.52;;;103.00;2227.20;;;;;;5072369;28;20035;-76
2021/12/28 05:46:19;;;;;;;;;;;103.00;2227.20;;;;;;5096165;28;20039;-82
2021/12/28 05:48:44;;;;;;;50.00;18.52;;;102.90;2227.20;;;;;;5096123;28;20362;-84
2021/12/28 05:51:10;;;;;;;;;;;102.80;2227.20;;;;;;5078344;28;20032;-85
2021/12/28 05:53:36;;;;;;;54.00;20.50;;;102.70;2227.20;;;;;;5077748;28;19938;-84
2021/12/28 05:56:02;;;;;;;;;;;102.60;2227.20;;;;;;5077078;28;20044;-75
2021/12/28 05:58:28;;;;;;;45.20;19.27;;;102.60;2227.20;;;;;;5088400;28;19927;-76
2021/12/28 06:00:53;;;;;;;;;;;102.50;2227.20;;;;;;5096640;28;20020;-84
2021/12/28 06:03:19;;;;;;;55.47;18.80;;;102.50;2227.20;;;;;;5095526;28;19908;-76
2021/12/28 06:05:45;;;;;;;;;;;102.40;2227.20;;;;;;5096390;28;20020;-75
2021/12/28 06:08:10;;;;;;;53.72;18.85;;;102.60;2227.20;;;;;;5095532;28;19973;-85
2021/12/28 06:10:36;;;;;;;;;;;102.60;2227.20;;;;;;5096225;28;20393;-85
2021/12/28 06:13:02;;;;;;;43.47;17.10;;;102.60;2227.20;;;;;;5095366;28;19965;-75
2021/12/28 06:15:28;;;;;;;58.00;20.08;;;102.60;2227.20;;;;;;5077422;28;20020;-75
2021/12/28 06:17:53;;;;;;;;;;;102.60;2227.20;;;;;;5064034;28;20693;-81
2021/12/28 06:20:19;;;;;;;48.10;17.65;;;102.80;2227.20;;;;;;5081420;28;19903;-85
2021/12/28 06:22:45;;;;;;;;;;;102.90;2227.20;;;;;;5077832;28;20024;-85
2021/12/28 06:25:11;;;;;;;36.80;16.83;;;102.90;2227.20;;;;;;5095201;28;19915;-80
2021/12/28 06:27:37;;;;;;;45.05;18.48;;;102.90;2227.20;;;;;;5095034;28;20069;-76
2021/12/28 06:30:02;;;;;;;;;;;102.90;2227.20;;;;;;5077581;28;20031;-77
2021/12/28 06:32:28;;;;;;;41.50;19.13;;;102.80;2227.20;;;;;;5076857;28;19919;-76
2021/12/28 06:34:54;;;;;;;;;;;102.80;2227.20;;;;;;5095344;28;20031;-75
2021/12/28 06:37:19;;;;;;;39.67;17.20;;;102.90;2227.20;;;;;;5094950;28;19994;-84
2021/12/28 06:39:45;;;;;;;;;;;102.80;2227.20;;;;;;5095396;28;20375;-78
2021/12/28 06:42:11;;;;;;;39.40;17.15;;;102.70;2227.20;;;;;;5077277;28;20359;-76
2021/12/28 06:44:36;;;;;;;;;;;102.80;2227.20;;;;;;5077084;28;20472;-79
2021/12/28 06:47:02;;;;;;;36.70;17.25;;;102.80;2227.20;;;;;;5076678;28;20436;-75
2021/12/28 06:49:28;;;;;;;40.10;18.20;;;102.80;2227.20;;;;;;5086569;28;20048;-83
2021/12/28 06:51:54;;;;;;;;;;;102.80;2227.20;;;;;;5095128;28;20067;-75
2021/12/28 06:54:19;;;;;;;38.67;18.85;;;102.80;2227.20;;;;;;5095281;28;19911;-83
2021/12/28 06:56:45;;;;;;;;;;;102.60;2227.20;;;;;;5095201;28;20095;-83
2021/12/28 06:59:11;;;;;;;33.53;15.63;;;102.60;2227.20;;;;;;5076852;28;19953;-86
2021/12/28 07:01:36;;;;;;;;;;;102.60;2227.20;;;;;;5084360;28;20054;-86
2021/12/28 07:04:02;;;;;;;35.00;15.35;;;102.50;2227.20;;;;;;5067731;28;20435;-76
2021/12/28 07:06:29;;;;;;;35.65;16.17;;;102.50;2227.20;;;;;;5065393;28;20021;-76
2021/12/28 07:08:55;;;;;;;31.40;15.68;;;102.40;2227.20;;;;;;5071482;28;20468;-78
2021/12/28 07:11:20;;;;;;;;;;;102.50;2227.20;;;;;;5076761;28;20028;-76
2021/12/28 07:13:46;;;;;;;43.75;20.13;;;102.50;2227.20;;;;;;5076094;28;20339;-83
2021/12/28 07:16:12;;;;;;;;;;;102.40;2227.20;;;;;;5095027;28;20050;-75
2021/12/28 07:18:38;;;;;;;35.00;16.63;;;77.70;2227.20;;;;;;5094232;28;19904;-80
2021/12/28 07:21:04;;;;;;;;;;;102.50;2227.20;;;;;;5094920;28;20024;-75
2021/12/28 07:23:30;;;;;;;30.77;14.77;;;102.40;2227.20;;;;;;5094360;28;20363;-75
2021/12/28 07:25:56;;;;;;;31.80;15.35;;;102.40;2227.20;;;;;;5088042;28;20016;-75
2021/12/28 07:28:23;;;;;;;;;;;102.40;2227.20;;;;;;5086307;28;20063;-81
2021/12/28 07:30:49;;;;;;;35.08;15.93;;;102.50;2227.20;;;;;;5094166;28;19919;-75
2021/12/28 07:33:15;;;;;;;34.45;17.25;;;77.70;2227.20;;;;;;5075431;28;20032;-75
2021/12/28 07:35:40;;;;;;;;;;;102.40;2227.20;;;;;;5076277;28;20028;-80
2021/12/28 07:38:06;;;;;;;26.15;13.50;;;102.40;2227.20;;;;;;5075097;28;19908;-75
2021/12/28 07:40:32;;;;;;;;;;;102.50;2227.20;;;;;;5075781;28;20020;-81
2021/12/28 07:42:58;;;;;;;35.20;15.45;;;102.60;2227.20;;;;;;5093519;28;20387;-79
2021/12/28 07:45:24;;;;;;;;;;;102.70;2227.20;;;;;;5093604;28;20073;-76
2021/12/28 07:47:50;;;;;;;33.63;17.85;;;102.60;2227.20;;;;;;5093332;28;19904;-75
2021/12/28 07:50:16;;;;;;;;;;;102.50;2227.20;;;;;;5093387;28;20934;-83
2021/12/28 07:52:44;;;;;;;23.17;11.00;;;102.40;2227.20;;;;;;5084084;28;19916;-85
2021/12/28 07:55:11;;;;;;;26.27;12.45;;;102.50;2227.20;;;;;;5064223;28;20029;-83
2021/12/28 07:57:37;;;;;;;25.02;12.30;;;102.50;2227.20;;;;;;5077563;28;20051;-75
2021/12/28 08:00:07;;;;;;;35.45;15.50;;;102.50;2227.20;;;;;;5073135;28;20025;-78
2021/12/28 08:02:33;;;;;;;32.90;15.68;;;102.60;2227.20;;;;;;5055336;28;20510;-79
2021/12/28 08:04:59;;;;;;;;;;;102.60;2227.20;;;;;;5055504;28;20028;-76
2021/12/28 08:07:25;;;;;;;46.92;22.80;;;102.50;2227.20;;;;;;5055313;28;19939;-75
2021/12/28 08:09:50;;;;;;;;;;;102.50;2227.20;;;;;;5076203;28;20061;-76
2021/12/28 08:12:16;;;;;;;34.88;16.88;;;102.60;2227.20;;;;;;5093123;28;19912;-77
2021/12/28 08:14:42;;;;;;;;;;;102.70;2227.20;;;;;;5075755;28;20491;-76
2021/12/28 08:17:08;;;;;;;25.70;11.57;;;102.80;2227.20;;;;;;5056990;28;20275;-76
2021/12/28 08:19:34;;;;;;;27.60;14.98;;;102.80;2227.20;;;;;;5092976;28;20024;-78
2021/12/28 08:22:00;;;;;;;27.77;13.48;;;102.80;2227.20;;;;;;5074712;28;20020;-75
2021/12/28 08:24:26;;;;;;;;;;;102.80;2227.20;;;;;;5093415;28;20033;-74
2021/12/28 08:26:52;;;;;;;38.70;19.00;;;102.90;2227.20;;;;;;5080104;28;20021;-75
2021/12/28 08:29:17;;;;;;;;;;;102.90;2227.20;;;;;;5073071;28;20032;-74
2021/12/28 08:31:43;;;;;;;23.23;12.88;;;103.10;2227.20;;;;;;5072478;28;19919;-76
2021/12/28 08:34:09;;;;;;;;;;;103.00;2227.20;;;;;;5073147;28;20056;-77
2021/12/28 08:36:35;;;;;;;31.20;15.98;;;102.90;2227.20;;;;;;5054806;28;19904;-78
2021/12/28 08:39:00;;;;;;;;;;;102.90;2227.20;;;;;;5073790;28;20025;-75
2021/12/28 08:41:26;;;;;;;25.00;11.77;;;102.80;2227.20;;;;;;5076295;28;19995;-77
2021/12/28 08:43:53;;;;;;;;;;;102.80;2227.20;;;;;;5076622;28;20499;-74
2021/12/28 08:46:18;;;;;;;84.18;39.00;;;102.80;2227.20;;;;;;5078890;28;19915;-77
2021/12/28 08:48:44;;;;;;;;;;;102.80;2227.20;;;;;;5081366;28;20375;-75
2021/12/28 08:51:10;;;;;;;33.15;18.40;;;103.00;2227.20;;;;;;5075768;28;19955;-76
2021/12/28 08:53:36;;;;;;;;;;;102.90;2227.20;;;;;;5077247;28;20412;-77
2021/12/28 08:56:02;;;;;;;33.53;17.83;;;102.70;2227.20;;;;;;5073961;28;20007;-74
2021/12/28 08:58:28;;;;;;;28.42;15.40;;;102.60;2227.20;;;;;;5079261;28;20500;-74
2021/12/28 09:00:54;;;;;;;;;;;102.40;2227.20;;;;;;5073829;28;20029;-76
2021/12/28 09:03:20;;;;;;;39.80;16.77;;;102.50;2227.20;;;;;;5072281;28;20435;-74
2021/12/28 09:05:45;;;;;;;;;;;102.60;2227.20;;;;;;5072418;28;20029;-77
2021/12/28 09:08:13;;;;;;;27.65;12.65;;;102.60;2227.20;;;;;;5072564;28;19908;-78
2021/12/28 09:10:39;;;;;;;31.42;14.38;;;102.60;2227.20;;;;;;5054159;28;20043;-76
2021/12/28 09:13:07;;;;;;;;;;;102.80;2227.20;;;;;;5054656;28;20024;-77
2021/12/28 09:15:35;;;;;;;27.50;15.43;;;102.80;2227.20;;;;;;5071839;28;19912;-80
2021/12/28 09:18:01;;;;;;;38.60;18.23;;;102.70;2227.20;;;;;;5080370;28;20048;-74
2021/12/28 09:20:27;;;;;;;42.45;20.70;;;102.70;2227.20;;;;;;5075897;28;20039;-75
2021/12/28 09:22:53;;;;;;;;;;;102.70;2227.20;;;;;;5073802;28;20110;-78
2021/12/28 09:25:19;;;;;;;33.53;16.90;;;102.60;2227.20;;;;;;5072445;28;19908;-74
2021/12/28 09:27:46;;;;;;;34.03;16.10;;;102.70;2227.20;;;;;;5071885;28;20040;-80
2021/12/28 09:30:13;;;;;;;31.17;14.77;;;102.80;2227.20;;;;;;5072006;28;20032;-76
2021/12/28 09:32:39;;;;;;;30.27;15.43;;;102.80;2227.20;;;;;;5072435;28;20049;-79
2021/12/28 09:35:05;;;;;;;;;;;102.80;2227.20;;;;;;5072837;28;20100;-75
2021/12/28 09:37:33;;;;;;;32.95;15.18;;;102.80;2227.20;;;;;;5071913;28;19940;-76
2021/12/28 09:40:00;;;;;;;35.13;14.98;;;102.80;2227.20;;;;;;5072329;28;20020;-79
2021/12/28 09:42:26;;;;;;;33.50;16.23;;;102.80;2227.20;;;;;;5072363;28;20050;-77
2021/12/28 09:44:52;;;;;;;32.47;16.35;;;102.70;2227.20;;;;;;5072420;28;20021;-81
2021/12/28 09:47:19;;;;;;;;;;;102.90;2227.20;;;;;;5054540;28;20117;-81
2021/12/28 09:49:46;;;;;;;34.42;15.48;;;102.90;2227.20;;;;;;5071900;28;19947;-79
2021/12/28 09:52:12;;;;;;;31.88;16.10;;;102.80;2227.20;;;;;;5071990;28;20086;-79
2021/12/28 09:54:38;;;;;;;;;;;102.80;2227.20;;;;;;5071970;28;20024;-74
2021/12/28 09:57:04;;;;;;;32.22;16.92;;;102.90;2227.20;;;;;;5076988;28;20336;-74
2021/12/28 09:59:32;;;;;;;48.80;22.17;;;102.90;2227.20;;;;;;5073936;28;20412;-74
2021/12/28 10:02:01;;;;;;;33.63;16.90;;;102.80;2227.20;;;;;;5071483;28;20024;-75
2021/12/28 10:04:27;;;;;;;45.10;20.02;;;102.90;2227.20;;;;;;5071142;28;20029;-74
2021/12/28 10:07:15;;;;;;;29.45;13.55;;;102.80;2227.20;;;;;;5071547;28;20021;-74
2021/12/28 10:09:41;;;;;;;27.92;14.30;;;102.90;2227.20;;;;;;5053029;28;20370;-75
2021/12/28 10:12:06;;;;;;;;;;;103.00;2227.20;;;;;;5054079;28;20040;-76
2021/12/28 10:14:32;;;;;;;41.38;19.15;;;102.90;2227.20;;;;;;5057332;28;20463;-74
2021/12/28 10:16:59;;;;;;;;;;;102.90;2227.20;;;;;;5077056;28;20023;-76
2021/12/28 10:19:39;;;;;;;34.78;14.75;;;102.90;2227.20;;;;;;5102345;28;19932;-75
2021/12/28 10:22:28;;;;;;;40.35;19.35;;;102.60;2227.20;;;;;;5090651;28;20490;-74
2021/12/28 10:25:14;;;;;;;50.40;22.88;;;102.60;2227.20;;;;;;5056695;28;20085;-75
2021/12/28 10:27:43;;;;;;;31.67;15.50;;;102.70;2227.20;;;;;;5075108;28;20041;-76
2021/12/28 10:30:21;;;;;;;47.80;22.75;;;103.00;2227.20;;;;;;5083372;28;20021;-78
2021/12/28 10:32:52;;;;;;;34.72;16.95;;;102.80;2227.20;;;;;;5085482;28;20028;-75
2021/12/28 10:35:31;;;;;;;55.33;21.65;;;103.00;2227.20;;;;;;5067963;28;20667;-76
2021/12/28 10:38:06;;;;;;;38.15;16.65;;;102.80;2227.20;;;;;;5090533;28;20021;-78
2021/12/28 10:40:35;;;;;;;33.80;17.08;;;102.90;2227.20;;;;;;5076737;28;20028;-74
2021/12/28 10:43:10;;;;;;;41.78;19.25;;;103.00;2227.20;;;;;;5077012;28;20067;-74
2021/12/28 10:45:39;;;;;;;42.88;22.15;;;103.00;2227.20;;;;;;5095014;28;20020;-74
2021/12/28 10:48:09;;;;;;;43.47;18.30;;;102.80;2227.20;;;;;;5067728;28;20476;-74
2021/12/28 10:51:01;;;;;;;47.15;21.05;;;102.80;2227.20;;;;;;5084179;28;21942;-77
2021/12/28 10:53:37;;;;;;;62.92;24.40;;;102.70;2227.20;;;;;;5090629;28;20098;-78
2021/12/28 10:56:06;;;;;;;58.83;23.80;;;102.70;2227.20;;;;;;5082648;28;20026;-83
2021/12/28 10:58:41;;;;;;;58.28;21.95;;;102.80;2227.20;;;;;;5079619;28;20024;-75
2021/12/28 11:01:15;;;;;;;46.90;21.08;;;102.80;2227.20;;;;;;5079187;28;20482;-75
2021/12/28 11:03:47;;;;;;;55.65;23.25;;;102.80;2227.20;;;;;;5067106;28;20016;-74
2021/12/28 11:06:22;;;;;;;64.13;28.63;;;102.80;2227.20;;;;;;5074435;28;20178;-75
2021/12/28 11:08:54;;;;;;;64.80;26.33;;;102.70;2227.20;;;;;;5073921;28;20035;-80
2021/12/28 11:11:24;;;;;;;47.28;21.40;;;102.60;2227.20;;;;;;5076206;28;20115;-75
2021/12/28 11:13:56;;;;;;;56.42;23.60;;;102.60;2227.20;;;;;;5081862;28;20054;-78
2021/12/28 11:16:26;;;;;;;57.88;22.45;;;102.60;2227.20;;;;;;5084807;28;20016;-76
2021/12/28 11:18:53;;;;;;;55.70;21.90;;;102.60;2227.20;;;;;;5081248;28;20468;-75
2021/12/28 11:21:24;;;;;;;67.00;28.42;;;102.70;2227.20;;;;;;5061818;28;20488;-75
2021/12/28 11:23:55;;;;;;;57.67;24.38;;;102.70;2227.20;;;;;;5081746;28;20468;-75
2021/12/28 11:26:31;;;;;;;57.28;23.13;;;102.70;2227.20;;;;;;5082354;28;20039;-83
2021/12/28 11:29:04;;;;;;;48.92;22.52;;;102.70;2227.20;;;;;;5077743;28;20064;-80
2021/12/28 11:31:41;;;;;;;56.30;23.42;;;102.70;2227.20;;;;;;5066637;28;20024;-76
2021/12/28 11:34:13;;;;;;;39.50;18.02;;;102.60;2227.20;;;;;;5076484;28;20027;-78
2021/12/28 11:36:49;;;;;;;60.88;23.95;;;102.60;2227.20;;;;;;5091028;28;20016;-74
2021/12/28 11:39:19;;;;;;;46.97;17.60;;;102.60;2227.20;;;;;;5067923;28;20047;-79
2021/12/28 11:41:46;;;;;;;45.58;23.17;;;102.70;2227.20;;;;;;5078849;28;20031;-74
2021/12/28 11:44:13;;;;;;;56.45;23.80;;;102.80;2227.20;;;;;;5092637;28;20027;-74
2021/12/28 11:46:38;;;;;;;69.35;26.88;;;102.90;2227.20;;;;;;5092348;28;20020;-77
2021/12/28 11:49:06;;;;;;;;;;;102.90;2227.20;;;;;;5070453;28;20395;-83
2021/12/28 11:51:32;;;;;;;;;;;102.80;2227.20;;;;;;5076942;28;19947;-81
2021/12/28 11:54:03;;;;;;;38.00;18.45;;;103.00;2227.20;;;;;;5095317;28;19904;-78
2021/12/28 11:56:33;;;;;;;62.03;25.92;;;103.00;2227.20;;;;;;5094784;28;20020;-73
2021/12/28 11:59:06;;;;;;;65.35;25.02;;;103.10;2227.20;;;;;;5080817;28;20082;-75
2021/12/28 12:01:47;;;;;;;61.90;22.55;;;103.30;2227.20;;;;;;5073077;28;20020;-82
2021/12/28 12:04:34;;;;;;;70.43;29.58;;;103.20;2227.20;;;;;;5075315;28;20035;-82
2021/12/28 12:07:14;;;;;;;49.78;20.30;;;103.00;2227.20;;;;;;5093269;28;20028;-72
2021/12/28 12:09:49;;;;;;;76.93;28.42;;;102.80;2227.20;;;;;;5093331;28;20499;-74
2021/12/28 12:12:22;;;;;;;57.65;23.77;;;102.80;2227.20;;;;;;5093034;28;20050;-80
2021/12/28 12:14:50;;;;;;;63.78;26.65;;;103.00;2227.20;;;;;;5090345;28;20032;-80
2021/12/28 12:17:28;;;;;;;53.40;25.73;;;102.90;2227.20;;;;;;5091043;28;20045;-80
2021/12/28 12:20:02;;;;;;;63.50;27.27;;;103.00;2227.20;;;;;;5077899;28;20028;-79
2021/12/28 12:22:41;;;;;;;56.33;23.35;;;103.00;2227.20;;;;;;5061568;28;20032;-77
2021/12/28 12:25:08;;;;;;;58.60;24.98;;;103.00;2227.20;;;;;;5077355;28;20031;-75
2021/12/28 12:27:40;;;;;;;46.85;19.90;;;103.20;2227.20;;;;;;5063725;28;20048;-77